sensor_id;sensor_type;location;lat;lon;timestamp;P1;durP1;ratioP1;P2;durP2;ratioP2
321;SDS011;148;51.480;7.208;2024-01-25T00:00:18;46.83;;;10.20;;
321;SDS011;148;51.480;7.208;2024-01-25T00:05:10;30.05;;;7.40;;
321;SDS011;148;51.480;7.208;2024-01-25T07:58:50;49.95;;;10.10;;
321;SDS011;148;51.480;7.208;2024-01-25T08:01:19;50.73;;;10.73;;
321;SDS011;148;51.480;7.208;2024-01-25T08:03:44;47.53;;;10.63;;
321;SDS011;148;51.480;7.208;2024-01-25T08:06:10;57.87;;;14.73;;
321;SDS011;148;51.480;7.208;2024-01-25T08:08:36;45.25;;;11.25;;
321;SDS011;148;51.480;7.208;2024-01-25T08:11:02;47.05;;;9.15;;
321;SDS011;148;51.480;7.208;2024-01-25T08:20:47;50.80;;;12.30;;
321;SDS011;148;51.480;7.208;2024-01-25T08:25:39;50.60;;;12.40;;
321;SDS011;148;51.480;7.208;2024-01-25T08:28:06;34.95;;;9.00;;
321;SDS011;148;51.480;7.208;2024-01-25T08:30:32;46.43;;;10.13;;
321;SDS011;148;51.480;7.208;2024-01-25T08:49:59;51.60;;;11.30;;
321;SDS011;148;51.480;7.208;2024-01-25T08:52:25;51.60;;;10.60;;
321;SDS011;148;51.480;7.208;2024-01-25T08:54:51;55.77;;;11.43;;
321;SDS011;148;51.480;7.208;2024-01-25T08:57:16;53.33;;;10.43;;
321;SDS011;148;51.480;7.208;2024-01-25T08:59:42;45.73;;;11.00;;
321;SDS011;148;51.480;7.208;2024-01-25T09:02:08;70.90;;;12.23;;
321;SDS011;148;51.480;7.208;2024-01-25T09:04:33;46.20;;;12.53;;
321;SDS011;148;51.480;7.208;2024-01-25T09:06:59;54.40;;;12.07;;
321;SDS011;148;51.480;7.208;2024-01-25T09:09:25;61.30;;;13.00;;
321;SDS011;148;51.480;7.208;2024-01-25T09:11:51;60.50;;;15.45;;
321;SDS011;148;51.480;7.208;2024-01-25T09:14:16;55.97;;;15.40;;
321;SDS011;148;51.480;7.208;2024-01-25T09:16:42;77.10;;;15.80;;
321;SDS011;148;51.480;7.208;2024-01-25T09:19:07;65.20;;;16.75;;
321;SDS011;148;51.480;7.208;2024-01-25T09:21:33;78.90;;;15.90;;
321;SDS011;148;51.480;7.208;2024-01-25T09:23:59;62.45;;;15.05;;
321;SDS011;148;51.480;7.208;2024-01-25T09:26:26;74.30;;;17.73;;
321;SDS011;148;51.480;7.208;2024-01-25T09:28:52;63.30;;;17.70;;
321;SDS011;148;51.480;7.208;2024-01-25T09:31:17;76.67;;;20.53;;
321;SDS011;148;51.480;7.208;2024-01-25T09:33:43;62.13;;;17.90;;
321;SDS011;148;51.480;7.208;2024-01-25T09:36:08;71.77;;;19.23;;
321;SDS011;148;51.480;7.208;2024-01-25T09:38:34;72.93;;;20.00;;
321;SDS011;148;51.480;7.208;2024-01-25T09:41:00;74.03;;;18.80;;
321;SDS011;148;51.480;7.208;2024-01-25T09:43:26;70.45;;;19.00;;
321;SDS011;148;51.480;7.208;2024-01-25T09:45:53;60.10;;;19.40;;
321;SDS011;148;51.480;7.208;2024-01-25T09:48:20;63.70;;;21.10;;
321;SDS011;148;51.480;7.208;2024-01-25T09:53:15;68.00;;;19.30;;
321;SDS011;148;51.480;7.208;2024-01-25T09:58:12;63.60;;;19.25;;
321;SDS011;148;51.480;7.208;2024-01-25T10:00:38;64.00;;;19.30;;
321;SDS011;148;51.480;7.208;2024-01-25T10:05:30;69.00;;;20.15;;
321;SDS011;148;51.480;7.208;2024-01-25T10:07:56;60.00;;;20.20;;
321;SDS011;148;51.480;7.208;2024-01-25T10:10:26;80.57;;;21.33;;
321;SDS011;148;51.480;7.208;2024-01-25T10:12:54;86.07;;;21.63;;
321;SDS011;148;51.480;7.208;2024-01-25T10:15:20;69.17;;;18.90;;
321;SDS011;148;51.480;7.208;2024-01-25T10:17:48;57.50;;;18.90;;
321;SDS011;148;51.480;7.208;2024-01-25T10:20:14;63.47;;;21.03;;
321;SDS011;148;51.480;7.208;2024-01-25T10:22:40;69.37;;;20.13;;
321;SDS011;148;51.480;7.208;2024-01-25T10:25:11;65.10;;;20.53;;
321;SDS011;148;51.480;7.208;2024-01-25T10:27:39;77.30;;;21.00;;
321;SDS011;148;51.480;7.208;2024-01-25T10:30:06;68.70;;;19.60;;
321;SDS011;148;51.480;7.208;2024-01-25T10:32:33;84.90;;;20.30;;
321;SDS011;148;51.480;7.208;2024-01-25T10:34:59;73.33;;;19.80;;
321;SDS011;148;51.480;7.208;2024-01-25T10:37:26;63.90;;;19.50;;
321;SDS011;148;51.480;7.208;2024-01-25T10:39:53;61.90;;;17.80;;
321;SDS011;148;51.480;7.208;2024-01-25T10:42:20;59.30;;;16.73;;
321;SDS011;148;51.480;7.208;2024-01-25T10:44:46;58.90;;;19.00;;
321;SDS011;148;51.480;7.208;2024-01-25T10:47:11;67.07;;;19.60;;
321;SDS011;148;51.480;7.208;2024-01-25T10:49:37;46.33;;;17.07;;
321;SDS011;148;51.480;7.208;2024-01-25T10:52:04;52.10;;;17.23;;
321;SDS011;148;51.480;7.208;2024-01-25T10:54:31;58.10;;;17.83;;
321;SDS011;148;51.480;7.208;2024-01-25T10:57:00;60.70;;;17.73;;
321;SDS011;148;51.480;7.208;2024-01-25T10:59:25;58.43;;;16.23;;
321;SDS011;148;51.480;7.208;2024-01-25T11:01:54;61.17;;;16.57;;
321;SDS011;148;51.480;7.208;2024-01-25T11:04:19;55.40;;;18.07;;
321;SDS011;148;51.480;7.208;2024-01-25T11:06:45;54.23;;;17.67;;
321;SDS011;148;51.480;7.208;2024-01-25T11:09:19;55.60;;;17.65;;
321;SDS011;148;51.480;7.208;2024-01-25T11:11:49;55.00;;;16.10;;
321;SDS011;148;51.480;7.208;2024-01-25T11:14:14;61.43;;;16.00;;
321;SDS011;148;51.480;7.208;2024-01-25T11:16:44;48.73;;;17.03;;
321;SDS011;148;51.480;7.208;2024-01-25T11:19:16;52.67;;;18.33;;
321;SDS011;148;51.480;7.208;2024-01-25T11:21:45;51.97;;;15.20;;
321;SDS011;148;51.480;7.208;2024-01-25T11:26:45;52.53;;;13.77;;
321;SDS011;148;51.480;7.208;2024-01-25T11:29:17;63.07;;;15.33;;
321;SDS011;148;51.480;7.208;2024-01-25T11:31:45;61.23;;;12.43;;
321;SDS011;148;51.480;7.208;2024-01-25T11:34:16;53.83;;;11.90;;
321;SDS011;148;51.480;7.208;2024-01-25T11:36:46;56.87;;;12.83;;
321;SDS011;148;51.480;7.208;2024-01-25T11:39:13;59.53;;;11.97;;
321;SDS011;148;51.480;7.208;2024-01-25T11:41:40;41.20;;;10.90;;
321;SDS011;148;51.480;7.208;2024-01-25T11:44:12;41.60;;;9.60;;
321;SDS011;148;51.480;7.208;2024-01-25T11:46:38;39.67;;;10.03;;
321;SDS011;148;51.480;7.208;2024-01-25T11:49:04;39.73;;;9.93;;
321;SDS011;148;51.480;7.208;2024-01-25T11:51:32;39.23;;;10.10;;
321;SDS011;148;51.480;7.208;2024-01-25T11:53:57;28.20;;;8.30;;
321;SDS011;148;51.480;7.208;2024-01-25T11:56:25;48.80;;;8.00;;
321;SDS011;148;51.480;7.208;2024-01-25T11:58:53;34.20;;;7.47;;
321;SDS011;148;51.480;7.208;2024-01-25T12:01:21;30.67;;;7.20;;
321;SDS011;148;51.480;7.208;2024-01-25T12:03:48;40.07;;;7.80;;
321;SDS011;148;51.480;7.208;2024-01-25T12:06:14;39.40;;;10.20;;
321;SDS011;148;51.480;7.208;2024-01-25T12:08:39;39.83;;;8.00;;
321;SDS011;148;51.480;7.208;2024-01-25T12:11:06;31.47;;;7.50;;
321;SDS011;148;51.480;7.208;2024-01-25T12:13:36;44.67;;;8.90;;
321;SDS011;148;51.480;7.208;2024-01-25T12:16:05;39.20;;;7.37;;
321;SDS011;148;51.480;7.208;2024-01-25T12:18:32;36.03;;;6.90;;
321;SDS011;148;51.480;7.208;2024-01-25T12:21:00;36.70;;;7.67;;
321;SDS011;148;51.480;7.208;2024-01-25T12:25:58;44.70;;;10.60;;
321;SDS011;148;51.480;7.208;2024-01-25T12:28:26;41.33;;;8.97;;
321;SDS011;148;51.480;7.208;2024-01-25T12:30:53;28.33;;;7.50;;
321;SDS011;148;51.480;7.208;2024-01-25T12:33:19;35.90;;;7.70;;
321;SDS011;148;51.480;7.208;2024-01-25T12:35:45;51.23;;;8.43;;
321;SDS011;148;51.480;7.208;2024-01-25T12:38:11;32.43;;;8.50;;
321;SDS011;148;51.480;7.208;2024-01-25T12:40:36;35.70;;;7.73;;
321;SDS011;148;51.480;7.208;2024-01-25T12:43:02;41.67;;;9.40;;
321;SDS011;148;51.480;7.208;2024-01-25T12:45:28;44.73;;;10.20;;
321;SDS011;148;51.480;7.208;2024-01-25T12:47:53;42.80;;;9.13;;
321;SDS011;148;51.480;7.208;2024-01-25T12:50:19;31.43;;;8.97;;
321;SDS011;148;51.480;7.208;2024-01-25T12:52:45;40.87;;;12.37;;
321;SDS011;148;51.480;7.208;2024-01-25T12:55:11;50.17;;;11.73;;
321;SDS011;148;51.480;7.208;2024-01-25T12:57:37;33.53;;;10.73;;
321;SDS011;148;51.480;7.208;2024-01-25T13:00:02;44.30;;;10.20;;
321;SDS011;148;51.480;7.208;2024-01-25T13:02:29;28.23;;;8.90;;
321;SDS011;148;51.480;7.208;2024-01-25T13:04:55;42.23;;;10.00;;
321;SDS011;148;51.480;7.208;2024-01-25T13:07:20;35.80;;;9.87;;
321;SDS011;148;51.480;7.208;2024-01-25T13:09:46;46.37;;;11.77;;
321;SDS011;148;51.480;7.208;2024-01-25T13:12:12;48.27;;;10.57;;
321;SDS011;148;51.480;7.208;2024-01-25T13:14:38;33.37;;;9.60;;
321;SDS011;148;51.480;7.208;2024-01-25T13:17:04;33.60;;;12.30;;
321;SDS011;148;51.480;7.208;2024-01-25T13:19:32;34.73;;;9.47;;
321;SDS011;148;51.480;7.208;2024-01-25T13:21:59;38.03;;;9.60;;
321;SDS011;148;51.480;7.208;2024-01-25T13:24:24;37.37;;;10.80;;
321;SDS011;148;51.480;7.208;2024-01-25T13:26:50;53.93;;;10.10;;
321;SDS011;148;51.480;7.208;2024-01-25T13:29:16;46.40;;;10.23;;
321;SDS011;148;51.480;7.208;2024-01-25T13:31:41;47.33;;;11.00;;
321;SDS011;148;51.480;7.208;2024-01-25T13:34:07;34.40;;;10.27;;
321;SDS011;148;51.480;7.208;2024-01-25T13:36:33;36.10;;;10.27;;
321;SDS011;148;51.480;7.208;2024-01-25T13:38:59;47.70;;;12.90;;
321;SDS011;148;51.480;7.208;2024-01-25T13:41:24;48.30;;;9.63;;
321;SDS011;148;51.480;7.208;2024-01-25T13:43:51;47.10;;;10.80;;
321;SDS011;148;51.480;7.208;2024-01-25T13:46:19;39.33;;;9.47;;
321;SDS011;148;51.480;7.208;2024-01-25T13:48:45;40.77;;;11.20;;
321;SDS011;148;51.480;7.208;2024-01-25T13:51:11;44.33;;;10.53;;
321;SDS011;148;51.480;7.208;2024-01-25T13:53:55;43.93;;;10.10;;
321;SDS011;148;51.480;7.208;2024-01-25T13:56:23;50.97;;;10.13;;
321;SDS011;148;51.480;7.208;2024-01-25T15:40:47;48.17;;;10.73;;
321;SDS011;148;51.480;7.208;2024-01-25T15:43:13;39.40;;;11.37;;
321;SDS011;148;51.480;7.208;2024-01-25T15:50:30;68.80;;;11.60;;
321;SDS011;148;51.480;7.208;2024-01-25T15:52:55;30.65;;;10.40;;
321;SDS011;148;51.480;7.208;2024-01-25T15:55:21;47.00;;;10.90;;
321;SDS011;148;51.480;7.208;2024-01-25T15:57:47;33.90;;;10.83;;
321;SDS011;148;51.480;7.208;2024-01-25T16:00:13;49.50;;;11.27;;
321;SDS011;148;51.480;7.208;2024-01-25T16:02:40;40.10;;;10.40;;
321;SDS011;148;51.480;7.208;2024-01-25T16:05:06;54.87;;;10.60;;
321;SDS011;148;51.480;7.208;2024-01-25T16:07:32;43.60;;;11.20;;
321;SDS011;148;51.480;7.208;2024-01-25T16:09:57;38.27;;;11.07;;
321;SDS011;148;51.480;7.208;2024-01-25T16:12:23;40.97;;;10.20;;
321;SDS011;148;51.480;7.208;2024-01-25T16:14:49;53.07;;;11.63;;
321;SDS011;148;51.480;7.208;2024-01-25T16:17:16;38.77;;;9.60;;
321;SDS011;148;51.480;7.208;2024-01-25T16:19:42;43.53;;;9.90;;
321;SDS011;148;51.480;7.208;2024-01-25T16:22:08;39.80;;;9.80;;
321;SDS011;148;51.480;7.208;2024-01-25T16:24:34;41.43;;;10.30;;
321;SDS011;148;51.480;7.208;2024-01-25T16:26:59;41.53;;;9.97;;
321;SDS011;148;51.480;7.208;2024-01-25T16:29:26;48.90;;;12.00;;
321;SDS011;148;51.480;7.208;2024-01-25T16:31:52;53.40;;;11.17;;
321;SDS011;148;51.480;7.208;2024-01-25T16:34:17;35.90;;;9.00;;
321;SDS011;148;51.480;7.208;2024-01-25T16:36:43;32.93;;;8.37;;
321;SDS011;148;51.480;7.208;2024-01-25T16:39:08;33.73;;;8.73;;
321;SDS011;148;51.480;7.208;2024-01-25T16:41:34;48.17;;;11.93;;
321;SDS011;148;51.480;7.208;2024-01-25T16:44:00;37.87;;;10.20;;
321;SDS011;148;51.480;7.208;2024-01-25T16:46:27;34.90;;;8.43;;
321;SDS011;148;51.480;7.208;2024-01-25T16:48:55;37.00;;;9.53;;
321;SDS011;148;51.480;7.208;2024-01-25T16:51:21;28.00;;;9.40;;
321;SDS011;148;51.480;7.208;2024-01-25T16:53:46;41.10;;;9.47;;
321;SDS011;148;51.480;7.208;2024-01-25T16:56:12;47.40;;;9.73;;
321;SDS011;148;51.480;7.208;2024-01-25T16:58:37;36.87;;;9.27;;
321;SDS011;148;51.480;7.208;2024-01-25T17:01:04;52.53;;;10.23;;
321;SDS011;148;51.480;7.208;2024-01-25T17:03:30;37.73;;;9.30;;
321;SDS011;148;51.480;7.208;2024-01-25T17:05:56;40.60;;;9.10;;
321;SDS011;148;51.480;7.208;2024-01-25T17:08:21;45.13;;;9.20;;
321;SDS011;148;51.480;7.208;2024-01-25T17:10:47;28.63;;;8.60;;
321;SDS011;148;51.480;7.208;2024-01-25T17:13:13;27.50;;;8.77;;
321;SDS011;148;51.480;7.208;2024-01-25T17:15:38;40.63;;;9.17;;
321;SDS011;148;51.480;7.208;2024-01-25T17:18:04;42.07;;;8.90;;
321;SDS011;148;51.480;7.208;2024-01-25T17:20:29;42.30;;;8.80;;
321;SDS011;148;51.480;7.208;2024-01-25T17:22:56;45.17;;;9.40;;
321;SDS011;148;51.480;7.208;2024-01-25T17:25:22;46.30;;;9.23;;
321;SDS011;148;51.480;7.208;2024-01-25T17:27:48;32.80;;;8.60;;
321;SDS011;148;51.480;7.208;2024-01-25T17:30:14;39.80;;;10.60;;
321;SDS011;148;51.480;7.208;2024-01-25T17:32:40;42.57;;;9.20;;
321;SDS011;148;51.480;7.208;2024-01-25T17:35:05;39.23;;;10.07;;
321;SDS011;148;51.480;7.208;2024-01-25T17:37:31;34.27;;;10.77;;
321;SDS011;148;51.480;7.208;2024-01-25T17:39:57;37.77;;;9.20;;
321;SDS011;148;51.480;7.208;2024-01-25T17:42:22;33.60;;;7.77;;
321;SDS011;148;51.480;7.208;2024-01-25T17:44:48;36.63;;;8.50;;
321;SDS011;148;51.480;7.208;2024-01-25T17:47:14;40.33;;;9.20;;
321;SDS011;148;51.480;7.208;2024-01-25T17:49:39;30.80;;;7.80;;
321;SDS011;148;51.480;7.208;2024-01-25T17:52:05;35.10;;;6.93;;
321;SDS011;148;51.480;7.208;2024-01-25T17:54:31;34.30;;;7.50;;
321;SDS011;148;51.480;7.208;2024-01-25T17:56:56;29.63;;;7.53;;
321;SDS011;148;51.480;7.208;2024-01-25T17:59:26;22.67;;;7.30;;
321;SDS011;148;51.480;7.208;2024-01-25T18:01:52;39.93;;;8.10;;
321;SDS011;148;51.480;7.208;2024-01-25T18:04:18;42.70;;;9.10;;
321;SDS011;148;51.480;7.208;2024-01-25T18:06:43;35.43;;;8.20;;
321;SDS011;148;51.480;7.208;2024-01-25T18:09:09;43.97;;;8.00;;
321;SDS011;148;51.480;7.208;2024-01-25T18:11:34;27.83;;;6.87;;
321;SDS011;148;51.480;7.208;2024-01-25T18:14:00;49.57;;;9.70;;
321;SDS011;148;51.480;7.208;2024-01-25T18:16:26;30.67;;;7.43;;
321;SDS011;148;51.480;7.208;2024-01-25T18:18:51;24.23;;;6.80;;
321;SDS011;148;51.480;7.208;2024-01-25T18:21:17;20.17;;;6.67;;
321;SDS011;148;51.480;7.208;2024-01-25T18:23:43;27.37;;;7.13;;
321;SDS011;148;51.480;7.208;2024-01-25T18:26:08;34.13;;;7.27;;
321;SDS011;148;51.480;7.208;2024-01-25T18:28:34;20.10;;;6.43;;
321;SDS011;148;51.480;7.208;2024-01-25T18:31:03;43.83;;;7.47;;
321;SDS011;148;51.480;7.208;2024-01-25T18:33:28;29.10;;;7.83;;
321;SDS011;148;51.480;7.208;2024-01-25T18:35:54;25.57;;;7.10;;
321;SDS011;148;51.480;7.208;2024-01-25T18:38:20;36.03;;;7.73;;
321;SDS011;148;51.480;7.208;2024-01-25T18:40:46;33.07;;;6.87;;
321;SDS011;148;51.480;7.208;2024-01-25T18:43:11;23.60;;;7.57;;
321;SDS011;148;51.480;7.208;2024-01-25T18:45:37;38.27;;;7.00;;
321;SDS011;148;51.480;7.208;2024-01-25T18:48:03;22.63;;;6.40;;
321;SDS011;148;51.480;7.208;2024-01-25T18:50:29;32.60;;;7.47;;
321;SDS011;148;51.480;7.208;2024-01-25T18:52:57;34.90;;;7.30;;
321;SDS011;148;51.480;7.208;2024-01-25T18:55:22;33.07;;;7.33;;
321;SDS011;148;51.480;7.208;2024-01-25T18:57:48;30.83;;;7.57;;
321;SDS011;148;51.480;7.208;2024-01-25T19:00:14;27.53;;;7.67;;
321;SDS011;148;51.480;7.208;2024-01-25T19:02:40;16.77;;;6.40;;
321;SDS011;148;51.480;7.208;2024-01-25T19:05:06;21.37;;;6.10;;
321;SDS011;148;51.480;7.208;2024-01-25T19:07:33;22.87;;;6.40;;
321;SDS011;148;51.480;7.208;2024-01-25T19:10:02;25.30;;;7.10;;
321;SDS011;148;51.480;7.208;2024-01-25T19:12:29;21.57;;;6.83;;
321;SDS011;148;51.480;7.208;2024-01-25T19:14:55;33.23;;;7.80;;
321;SDS011;148;51.480;7.208;2024-01-25T19:17:20;29.63;;;6.37;;
321;SDS011;148;51.480;7.208;2024-01-25T19:19:46;34.33;;;7.30;;
321;SDS011;148;51.480;7.208;2024-01-25T19:22:15;36.17;;;7.93;;
321;SDS011;148;51.480;7.208;2024-01-25T19:24:41;30.57;;;7.13;;
321;SDS011;148;51.480;7.208;2024-01-25T19:27:06;40.37;;;7.80;;
321;SDS011;148;51.480;7.208;2024-01-25T19:29:32;34.83;;;9.60;;
321;SDS011;148;51.480;7.208;2024-01-25T19:31:58;35.70;;;7.70;;
321;SDS011;148;51.480;7.208;2024-01-25T19:34:23;27.10;;;6.90;;
321;SDS011;148;51.480;7.208;2024-01-25T19:36:49;27.20;;;6.90;;
321;SDS011;148;51.480;7.208;2024-01-25T19:39:15;28.70;;;7.40;;
321;SDS011;148;51.480;7.208;2024-01-25T19:41:40;22.43;;;7.50;;
321;SDS011;148;51.480;7.208;2024-01-25T19:44:06;23.70;;;6.90;;
321;SDS011;148;51.480;7.208;2024-01-25T19:46:32;28.30;;;8.00;;
321;SDS011;148;51.480;7.208;2024-01-25T19:48:58;30.87;;;7.80;;
321;SDS011;148;51.480;7.208;2024-01-25T19:51:24;31.40;;;8.90;;
321;SDS011;148;51.480;7.208;2024-01-25T19:53:49;20.63;;;7.37;;
321;SDS011;148;51.480;7.208;2024-01-25T19:56:15;24.73;;;7.70;;
321;SDS011;148;51.480;7.208;2024-01-25T19:58:42;22.53;;;6.70;;
321;SDS011;148;51.480;7.208;2024-01-25T20:01:15;19.73;;;6.70;;
321;SDS011;148;51.480;7.208;2024-01-25T20:03:41;18.30;;;7.10;;
321;SDS011;148;51.480;7.208;2024-01-25T20:06:10;26.43;;;7.50;;
321;SDS011;148;51.480;7.208;2024-01-25T20:08:39;30.93;;;7.10;;
321;SDS011;148;51.480;7.208;2024-01-25T20:11:04;33.20;;;6.37;;
321;SDS011;148;51.480;7.208;2024-01-25T20:13:33;23.20;;;7.20;;
321;SDS011;148;51.480;7.208;2024-01-25T20:16:00;31.20;;;6.77;;
321;SDS011;148;51.480;7.208;2024-01-25T20:18:26;36.43;;;7.27;;
321;SDS011;148;51.480;7.208;2024-01-25T20:20:52;20.10;;;6.63;;
321;SDS011;148;51.480;7.208;2024-01-25T20:23:18;26.53;;;7.60;;
321;SDS011;148;51.480;7.208;2024-01-25T20:25:44;27.30;;;6.80;;
321;SDS011;148;51.480;7.208;2024-01-25T20:28:09;19.20;;;7.10;;
321;SDS011;148;51.480;7.208;2024-01-25T20:30:35;25.27;;;6.53;;
321;SDS011;148;51.480;7.208;2024-01-25T20:33:03;21.87;;;7.20;;
321;SDS011;148;51.480;7.208;2024-01-25T20:35:29;26.50;;;7.50;;
321;SDS011;148;51.480;7.208;2024-01-25T20:37:55;27.23;;;9.10;;
321;SDS011;148;51.480;7.208;2024-01-25T20:40:20;22.93;;;7.90;;
321;SDS011;148;51.480;7.208;2024-01-25T20:42:46;19.70;;;7.50;;
321;SDS011;148;51.480;7.208;2024-01-25T20:45:12;20.77;;;8.10;;
321;SDS011;148;51.480;7.208;2024-01-25T20:47:37;18.47;;;7.10;;
321;SDS011;148;51.480;7.208;2024-01-25T20:50:03;21.23;;;7.40;;
321;SDS011;148;51.480;7.208;2024-01-25T20:52:29;20.43;;;7.60;;
321;SDS011;148;51.480;7.208;2024-01-25T20:54:54;24.40;;;7.73;;
321;SDS011;148;51.480;7.208;2024-01-25T20:57:20;25.63;;;10.13;;
321;SDS011;148;51.480;7.208;2024-01-25T20:59:46;14.73;;;8.13;;
321;SDS011;148;51.480;7.208;2024-01-25T21:02:11;24.57;;;8.57;;
321;SDS011;148;51.480;7.208;2024-01-25T21:04:37;25.77;;;9.50;;
321;SDS011;148;51.480;7.208;2024-01-25T21:07:03;28.73;;;9.63;;
321;SDS011;148;51.480;7.208;2024-01-25T21:09:29;25.13;;;9.60;;
321;SDS011;148;51.480;7.208;2024-01-25T21:11:56;23.00;;;9.50;;
321;SDS011;148;51.480;7.208;2024-01-25T21:14:22;28.53;;;8.93;;
321;SDS011;148;51.480;7.208;2024-01-25T21:16:48;27.83;;;9.77;;
321;SDS011;148;51.480;7.208;2024-01-25T21:19:13;25.87;;;9.33;;
321;SDS011;148;51.480;7.208;2024-01-25T21:21:39;19.03;;;9.90;;
